Time;durP1;ratioP1;P1;durP2;ratioP2;P2;SDS_P1;SDS_P2;PMS_P1;PMS_P2;Temp;Humidity;BMP_temperature;BMP_pressure;BME280_temperature;BME280_humidity;BME280_pressure;Samples;Min_cycle;Max_cycle;Signal;HPM_P1;HPM_P2
2020/12/06 00:00:43;;;;;;;24.17;8.32;;;6.40;68.40;;;;;;6191472;28;20078;-93
2020/12/06 00:03:44;;;;;;;26.77;9.07;;;6.40;68.20;;;;;;6190039;28;20136;-70
2020/12/06 00:06:48;;;;;;;31.50;10.27;;;6.40;68.20;;;;;;6197429;28;20030;-70
2020/12/06 00:09:49;;;;;;;39.47;11.27;;;6.30;68.40;;;;;;6225961;28;20041;-70
2020/12/06 00:12:49;;;;;;;26.60;8.55;;;6.30;68.70;;;;;;6297696;28;20036;-70
2020/12/06 00:15:51;;;;;;;28.98;9.95;;;6.30;68.90;;;;;;6297701;28;20044;-70
2020/12/06 00:18:52;;;;;;;30.05;10.30;;;6.30;68.80;;;;;;6251022;28;20045;-69
2020/12/06 00:21:52;;;;;;;32.38;10.50;;;6.30;68.90;;;;;;6263578;28;20469;-69
2020/12/06 00:24:53;;;;;;;29.52;9.65;;;6.40;68.80;;;;;;6230340;28;20371;-69
2020/12/06 00:27:54;;;;;;;33.75;11.20;;;6.40;68.80;;;;;;6263236;28;20064;-68
2020/12/06 00:30:55;;;;;;;36.30;11.73;;;6.40;68.80;;;;;;6247604;28;20080;-69
2020/12/06 00:33:56;;;;;;;26.60;9.98;;;6.40;68.70;;;;;;6263154;28;20037;-70
2020/12/06 00:36:57;;;;;;;37.78;11.50;;;6.40;68.70;;;;;;6247871;28;20120;-69
2020/12/06 00:39:57;;;;;;;31.08;10.27;;;6.40;68.50;;;;;;6246371;28;20042;-70
2020/12/06 00:42:58;;;;;;;38.42;11.70;;;6.40;68.40;;;;;;6246786;28;20096;-69
2020/12/06 00:45:59;;;;;;;32.33;10.65;;;6.30;68.50;;;;;;6279826;28;20029;-69
2020/12/06 00:49:00;;;;;;;42.05;13.55;;;6.30;68.50;;;;;;6231310;28;20057;-69
2020/12/06 00:52:01;;;;;;;39.80;13.77;;;6.20;68.60;;;;;;6245134;28;20527;-69
2020/12/06 00:55:02;;;;;;;42.28;13.90;;;6.30;68.90;;;;;;6263060;28;20497;-71
2020/12/06 00:58:04;;;;;;;36.97;12.02;;;6.30;68.90;;;;;;6262624;28;20050;-71
2020/12/06 01:01:05;;;;;;;34.90;11.98;;;6.30;68.80;;;;;;6205589;28;20044;-68
2020/12/06 01:04:07;;;;;;;26.90;10.18;;;6.20;68.70;;;;;;6221712;28;20030;-69
2020/12/06 01:07:08;;;;;;;46.50;13.10;;;6.20;68.70;;;;;;6270140;28;20060;-69
2020/12/06 01:10:12;;;;;;;32.42;11.68;;;6.20;68.80;;;;;;6246187;28;20474;-69
2020/12/06 01:13:12;;;;;;;31.88;10.75;;;6.10;68.90;;;;;;6248562;28;20478;-69
2020/12/06 01:16:14;;;;;;;26.02;9.32;;;6.10;68.90;;;;;;6266320;28;20108;-69
2020/12/06 01:19:15;;;;;;;28.92;9.25;;;6.10;69.20;;;;;;6248331;28;20109;-70
2020/12/06 01:22:16;;;;;;;26.58;8.00;;;6.10;69.10;;;;;;6248357;28;20033;-70
2020/12/06 01:25:17;;;;;;;20.88;8.80;;;6.10;69.30;;;;;;6248485;28;20555;-68
2020/12/06 01:28:17;;;;;;;25.67;8.55;;;6.20;69.40;;;;;;6247130;28;20057;-71
2020/12/06 01:31:18;;;;;;;24.05;7.68;;;6.20;69.20;;;;;;6258925;28;20045;-71
2020/12/06 01:34:19;;;;;;;24.33;9.32;;;6.20;68.90;;;;;;6255156;28;20132;-70
2020/12/06 01:37:20;;;;;;;24.85;8.65;;;6.20;68.80;;;;;;6230402;28;20041;-71
2020/12/06 01:40:21;;;;;;;20.38;6.85;;;6.00;68.70;;;;;;6246957;28;20411;-69
2020/12/06 01:43:22;;;;;;;28.73;9.00;;;6.10;68.80;;;;;;6247837;28;20117;-71
2020/12/06 01:46:24;;;;;;;27.13;7.53;;;6.10;68.90;;;;;;6245093;28;20045;-69
2020/12/06 01:49:26;;;;;;;25.17;9.73;;;6.10;68.90;;;;;;6247539;28;20033;-71
2020/12/06 01:52:29;;;;;;;22.50;8.73;;;6.00;69.00;;;;;;6247178;28;20124;-69
2020/12/06 01:55:31;;;;;;;33.42;9.57;;;6.10;69.20;;;;;;6251538;28;20060;-70
2020/12/06 01:58:32;;;;;;;20.13;7.97;;;6.10;69.40;;;;;;6251629;28;20041;-68
2020/12/06 02:01:32;;;;;;;28.20;10.82;;;6.10;69.40;;;;;;6252733;28;20425;-71
2020/12/06 02:04:33;;;;;;;23.45;8.90;;;6.10;69.50;;;;;;6251489;28;20080;-69
2020/12/06 02:07:35;;;;;;;21.30;8.13;;;6.20;69.30;;;;;;6252477;28;20038;-70
2020/12/06 02:10:36;;;;;;;23.35;8.77;;;6.20;69.20;;;;;;6235025;28;20038;-69
2020/12/06 02:13:37;;;;;;;21.63;8.75;;;6.20;69.20;;;;;;6251499;28;20099;-70
2020/12/06 02:16:38;;;;;;;28.15;9.13;;;6.20;69.20;;;;;;6254833;28;20029;-70
2020/12/06 02:19:40;;;;;;;22.38;9.00;;;6.10;69.10;;;;;;6251281;28;20485;-69
2020/12/06 02:22:41;;;;;;;22.90;8.98;;;6.20;69.20;;;;;;6275432;28;20039;-69
2020/12/06 02:25:42;;;;;;;25.48;10.27;;;6.20;70.00;;;;;;6277030;28;20450;-69
2020/12/06 02:28:43;;;;;;;26.55;9.05;;;6.20;69.10;;;;;;6275782;28;20044;-70
2020/12/06 02:31:44;;;;;;;22.17;8.40;;;6.20;69.20;;;;;;6275454;28;20069;-69
2020/12/06 02:34:45;;;;;;;24.00;8.50;;;6.30;69.10;;;;;;6275609;28;20432;-70
2020/12/06 02:37:46;;;;;;;26.83;10.13;;;6.30;68.90;;;;;;6275957;28;20088;-70
2020/12/06 02:40:48;;;;;;;27.13;9.90;;;6.30;68.80;;;;;;6276445;28;20033;-69
2020/12/06 02:43:58;;;;;;;23.42;8.65;;;6.30;68.70;;;;;;6276427;28;20052;-69
2020/12/06 02:46:59;;;;;;;22.58;9.25;;;6.40;68.70;;;;;;6269028;28;20029;-69
2020/12/06 02:50:00;;;;;;;21.80;8.27;;;6.30;69.10;;;;;;6250420;28;20037;-69
2020/12/06 02:53:01;;;;;;;24.02;8.75;;;6.30;68.20;;;;;;6250392;28;20474;-69
2020/12/06 02:56:02;;;;;;;32.10;11.07;;;6.20;68.40;;;;;;6250073;28;20176;-69
2020/12/06 02:59:09;;;;;;;21.63;9.60;;;6.10;68.60;;;;;;6250544;28;20048;-69
2020/12/06 03:02:10;;;;;;;27.95;10.63;;;6.10;68.70;;;;;;6251164;28;20061;-69
2020/12/06 03:05:11;;;;;;;22.15;8.18;;;6.10;68.60;;;;;;6250012;28;20034;-69
2020/12/06 03:08:11;;;;;;;23.58;8.38;;;6.10;68.60;;;;;;6251248;28;20116;-69
2020/12/06 03:11:12;;;;;;;22.52;8.40;;;6.10;68.70;;;;;;6249938;28;20056;-69
2020/12/06 03:14:13;;;;;;;16.20;7.80;;;6.10;68.90;;;;;;6250236;28;20041;-70
2020/12/06 03:17:14;;;;;;;21.33;8.82;;;6.10;69.10;;;;;;6251656;28;20037;-69
2020/12/06 03:20:15;;;;;;;19.88;8.38;;;6.10;69.00;;;;;;6250028;28;20036;-69
2020/12/06 03:23:16;;;;;;;19.05;8.70;;;6.10;69.00;;;;;;6249565;28;20080;-70
2020/12/06 03:26:17;;;;;;;29.73;9.75;;;6.10;69.80;;;;;;6274095;28;20037;-69
2020/12/06 03:29:17;;;;;;;18.83;8.07;;;6.00;69.10;;;;;;6274240;28;20029;-70
2020/12/06 03:36:46;;;;;;;20.55;8.48;;;6.00;69.40;;;;;;6272751;28;20037;-70
2020/12/06 03:39:47;;;;;;;18.92;7.38;;;6.00;69.60;;;;;;6273341;28;20128;-70
2020/12/06 03:42:50;;;;;;;15.20;7.20;;;6.00;69.60;;;;;;6273145;28;20064;-70
2020/12/06 03:45:51;;;;;;;21.55;8.10;;;6.10;69.50;;;;;;6272189;28;20041;-70
2020/12/06 03:48:52;;;;;;;22.15;8.32;;;6.20;69.30;;;;;;6247107;28;20415;-69
2020/12/06 03:51:53;;;;;;;20.08;8.38;;;6.20;69.20;;;;;;6246595;28;20052;-69
2020/12/06 03:54:54;;;;;;;19.50;7.22;;;6.20;69.00;;;;;;6230894;28;20494;-69
2020/12/06 03:57:55;;;;;;;17.63;7.10;;;6.20;68.80;;;;;;6239560;28;20041;-69
2020/12/06 04:00:55;;;;;;;25.85;7.85;;;6.20;68.50;;;;;;6267571;28;20536;-69
2020/12/06 04:03:56;;;;;;;19.17;6.88;;;6.20;68.70;;;;;;6272657;28;20041;-70
2020/12/06 04:06:57;;;;;;;17.30;6.32;;;6.20;68.80;;;;;;6254672;28;20116;-69
2020/12/06 04:09:58;;;;;;;23.27;7.40;;;6.20;68.70;;;;;;6272389;28;20037;-70
2020/12/06 04:12:59;;;;;;;16.63;6.88;;;6.20;68.80;;;;;;6253328;28;20087;-70
2020/12/06 04:16:00;;;;;;;19.13;8.13;;;6.20;68.80;;;;;;6246398;28;20037;-69
2020/12/06 04:19:02;;;;;;;20.48;7.07;;;6.20;68.50;;;;;;6240307;28;20459;-69
2020/12/06 04:22:06;;;;;;;22.65;7.35;;;6.10;68.40;;;;;;6247580;28;20044;-69
2020/12/06 04:25:07;;;;;;;17.10;7.15;;;6.10;68.80;;;;;;6246259;28;20056;-69
2020/12/06 04:28:10;;;;;;;18.38;7.93;;;6.20;69.00;;;;;;6245570;28;20029;-69
2020/12/06 04:31:11;;;;;;;19.52;7.03;;;6.20;68.70;;;;;;6245380;28;20094;-69
2020/12/06 04:34:12;;;;;;;17.42;6.55;;;6.10;68.50;;;;;;6247123;28;20044;-69
2020/12/06 04:37:13;;;;;;;20.98;7.43;;;6.10;68.60;;;;;;6246927;28;20033;-69
2020/12/06 04:40:14;;;;;;;22.23;8.65;;;6.10;68.90;;;;;;6239434;28;20572;-69
2020/12/06 04:43:18;;;;;;;22.77;8.05;;;6.10;68.90;;;;;;6228780;28;20048;-69
2020/12/06 04:46:19;;;;;;;23.83;8.90;;;6.20;68.90;;;;;;6245498;28;20052;-69
2020/12/06 04:49:42;;;;;;;19.48;7.30;;;6.20;68.80;;;;;;6255315;28;20033;-69
2020/12/06 04:52:44;;;;;;;18.05;6.72;;;6.10;68.70;;;;;;6269602;28;20075;-69
2020/12/06 04:55:46;;;;;;;24.48;7.82;;;6.10;68.70;;;;;;6269028;28;20044;-69
2020/12/06 04:58:51;;;;;;;15.55;6.40;;;6.10;68.70;;;;;;6270207;28;20033;-69
2020/12/06 05:01:55;;;;;;;22.38;7.75;;;6.00;68.80;;;;;;6258317;28;20451;-69
2020/12/06 05:05:01;;;;;;;25.05;9.25;;;6.00;68.90;;;;;;6241320;28;20088;-69
2020/12/06 05:08:12;;;;;;;20.50;7.50;;;6.00;69.00;;;;;;6254417;28;20047;-69
2020/12/06 05:11:16;;;;;;;19.08;7.53;;;6.00;69.10;;;;;;6269874;28;20362;-70
2020/12/06 05:14:17;;;;;;;17.20;6.50;;;5.90;69.20;;;;;;6270172;28;20061;-69
2020/12/06 05:17:18;;;;;;;22.80;7.85;;;5.90;69.30;;;;;;6231081;28;20033;-69
2020/12/06 05:20:19;;;;;;;20.25;8.20;;;5.90;69.50;;;;;;6247655;28;20060;-70
2020/12/06 05:23:19;;;;;;;13.63;6.40;;;5.90;69.70;;;;;;6271878;28;20462;-69
2020/12/06 05:26:21;;;;;;;15.10;6.28;;;5.80;69.70;;;;;;6248850;28;20463;-69
2020/12/06 05:29:22;;;;;;;11.85;5.70;;;5.90;69.90;;;;;;6246190;28;20048;-69
2020/12/06 05:32:28;;;;;;;13.85;5.80;;;5.90;69.70;;;;;;6259575;28;20045;-69
2020/12/06 05:35:29;;;;;;;21.95;7.70;;;5.90;69.90;;;;;;6269637;28;20473;-69
2020/12/06 05:38:30;;;;;;;16.70;7.30;;;5.90;69.80;;;;;;6248619;28;20037;-69
2020/12/06 05:41:32;;;;;;;15.25;6.07;;;5.90;69.90;;;;;;6246925;28;20103;-70
2020/12/06 05:44:33;;;;;;;15.65;6.47;;;5.90;69.90;;;;;;6264475;28;20040;-69
2020/12/06 05:47:34;;;;;;;16.17;7.05;;;6.00;69.90;;;;;;6260110;28;20037;-69
2020/12/06 05:50:35;;;;;;;17.50;7.07;;;6.00;69.80;;;;;;6245526;28;20090;-69
2020/12/06 05:53:36;;;;;;;10.10;5.25;;;6.00;69.50;;;;;;6245271;28;20030;-69
2020/12/06 05:56:43;;;;;;;15.48;6.15;;;6.00;69.50;;;;;;6245863;28;20775;-69
2020/12/06 05:59:45;;;;;;;22.38;6.97;;;6.00;69.50;;;;;;6204983;28;20033;-70
2020/12/06 06:02:53;;;;;;;19.92;6.45;;;6.00;69.30;;;;;;6262695;28;20033;-69
2020/12/06 06:05:56;;;;;;;17.17;7.50;;;6.00;69.20;;;;;;6269526;28;20066;-69
2020/12/06 06:09:03;;;;;;;15.50;6.30;;;6.00;69.20;;;;;;6259683;28;20060;-69
2020/12/06 06:12:24;;;;;;;19.48;6.63;;;6.00;69.20;;;;;;6245571;28;20080;-69
2020/12/06 06:15:26;;;;;;;13.65;5.13;;;6.00;69.40;;;;;;6245792;28;20092;-69
2020/12/06 06:18:27;;;;;;;17.90;6.47;;;6.00;69.60;;;;;;6248079;28;20120;-70
2020/12/06 06:21:32;;;;;;;16.60;6.32;;;6.00;69.60;;;;;;6247570;28;20414;-69
2020/12/06 06:24:36;;;;;;;16.63;7.15;;;6.00;69.70;;;;;;6270332;28;20060;-69
2020/12/06 06:27:40;;;;;;;17.70;7.32;;;6.00;69.60;;;;;;6269203;28;20052;-70
2020/12/06 06:30:42;;;;;;;17.80;6.28;;;5.90;69.50;;;;;;6269850;28;20413;-70
2020/12/06 06:33:45;;;;;;;21.10;7.65;;;5.90;69.70;;;;;;6269000;28;20091;-69
2020/12/06 06:36:49;;;;;;;17.75;5.28;;;5.80;69.70;;;;;;6270272;28;20052;-69
2020/12/06 06:39:51;;;;;;;18.35;7.38;;;5.80;69.80;;;;;;6273836;28;20041;-69
2020/12/06 06:42:54;;;;;;;22.13;7.10;;;5.70;69.90;;;;;;6274503;28;20480;-71
2020/12/06 06:45:54;;;;;;;24.10;8.15;;;5.60;70.00;;;;;;6273313;28;20094;-70
2020/12/06 06:48:57;;;;;;;21.83;8.40;;;5.60;70.10;;;;;;6270386;28;20037;-69
2020/12/06 06:51:58;;;;;;;17.88;5.82;;;5.60;70.40;;;;;;6256726;28;20359;-69
2020/12/06 06:54:59;;;;;;;22.83;7.18;;;5.60;70.40;;;;;;6265686;28;20041;-69
2020/12/06 06:58:01;;;;;;;21.73;8.02;;;5.70;70.40;;;;;;6274133;28;20037;-71
2020/12/06 07:01:17;;;;;;;27.40;10.25;;;5.70;70.50;;;;;;6272988;28;20122;-70
2020/12/06 07:04:19;;;;;;;25.05;8.18;;;5.80;70.50;;;;;;6272810;28;20048;-70
2020/12/06 07:07:38;;;;;;;24.52;9.05;;;5.80;70.50;;;;;;6273131;28;20036;-70
2020/12/06 07:10:40;;;;;;;;;;;5.90;70.30;;;;;;6274099;28;20110;-71
2020/12/06 07:13:41;;;;;;;22.33;9.20;;;5.90;70.40;;;;;;6271429;28;19912;-70
2020/12/06 07:16:42;;;;;;;23.08;8.15;;;5.90;70.20;;;;;;6268318;28;20386;-69
2020/12/06 07:19:47;;;;;;;27.63;8.23;;;5.90;70.10;;;;;;6248800;28;20441;-69
2020/12/06 07:22:49;;;;;;;18.48;7.18;;;5.90;70.20;;;;;;6267249;28;20416;-68
2020/12/06 07:25:50;;;;;;;25.23;7.78;;;5.90;70.20;;;;;;6251975;28;20339;-69
2020/12/06 07:28:51;;;;;;;17.77;6.32;;;5.80;70.10;;;;;;6249932;28;20045;-68
2020/12/06 07:31:53;;;;;;;31.70;10.15;;;5.80;70.30;;;;;;6256718;28;20097;-70
2020/12/06 07:34:54;;;;;;;29.23;10.50;;;5.90;70.40;;;;;;6256228;28;20037;-70
2020/12/06 07:37:58;;;;;;;22.92;7.25;;;5.90;70.50;;;;;;6231971;28;20485;-69
2020/12/06 07:41:03;;;;;;;16.48;6.05;;;5.90;70.60;;;;;;6232117;28;20163;-69
2020/12/06 07:44:04;;;;;;;26.25;8.15;;;5.90;70.50;;;;;;6249208;28;20098;-69
2020/12/06 07:47:04;;;;;;;19.10;8.18;;;5.90;70.40;;;;;;6250198;28;20045;-71
2020/12/06 07:50:06;;;;;;;21.38;8.70;;;5.90;70.50;;;;;;6272844;28;20047;-72
2020/12/06 07:53:07;;;;;;;20.42;9.52;;;6.00;70.40;;;;;;6244014;28;20395;-70
2020/12/06 07:56:09;;;;;;;23.65;7.93;;;6.00;70.40;;;;;;6266017;28;20025;-71
2020/12/06 07:59:22;;;;;;;29.80;9.43;;;6.00;70.40;;;;;;6268299;28;20417;-69
2020/12/06 08:02:26;;;;;;;22.70;8.75;;;6.00;70.40;;;;;;6279252;28;20025;-71
2020/12/06 08:05:30;;;;;;;27.60;9.60;;;6.00;70.30;;;;;;6265721;28;20040;-70
2020/12/06 08:08:36;;;;;;;22.40;8.23;;;6.10;70.40;;;;;;6214567;28;20142;-69
2020/12/06 08:11:44;;;;;;;22.30;8.32;;;6.20;70.20;;;;;;6230195;28;20038;-70
2020/12/06 08:14:46;;;;;;;27.35;9.48;;;6.30;70.10;;;;;;6248301;28;20033;-69
2020/12/06 08:17:53;;;;;;;28.77;10.40;;;6.40;70.10;;;;;;6250008;28;20060;-69
2020/12/06 08:20:55;;;;;;;34.45;10.07;;;6.50;70.00;;;;;;6248815;28;20029;-69
2020/12/06 08:23:56;;;;;;;28.65;9.95;;;6.60;69.90;;;;;;6248412;28;20043;-69
2020/12/06 08:26:58;;;;;;;24.00;8.68;;;6.70;70.60;;;;;;6231830;28;20368;-70
2020/12/06 08:30:03;;;;;;;25.25;9.35;;;6.70;69.40;;;;;;6249377;28;20124;-70
2020/12/06 08:33:04;;;;;;;18.30;6.85;;;6.80;69.00;;;;;;6252557;28;20041;-70
2020/12/06 08:36:05;;;;;;;20.92;8.23;;;6.80;68.80;;;;;;6262604;28;20040;-68
2020/12/06 08:39:24;;;;;;;23.42;8.60;;;6.80;68.60;;;;;;6255403;28;20051;-69
2020/12/06 08:42:25;;;;;;;18.98;7.55;;;6.80;68.50;;;;;;6273038;28;20466;-69
2020/12/06 08:45:26;;;;;;;23.05;9.00;;;6.90;68.50;;;;;;6271604;28;20103;-69
2020/12/06 08:48:30;;;;;;;25.02;8.50;;;6.90;68.60;;;;;;6257554;28;20048;-68
2020/12/06 08:51:38;;;;;;;25.45;9.35;;;7.00;68.50;;;;;;6247949;28;20051;-68
2020/12/06 08:54:39;;;;;;;26.20;9.60;;;6.90;67.60;;;;;;6247985;28;20035;-68
2020/12/06 08:57:39;;;;;;;21.42;7.90;;;6.90;67.70;;;;;;6261526;28;20351;-69
2020/12/06 09:00:40;;;;;;;26.60;8.20;;;6.90;67.60;;;;;;6255404;28;20420;-69
2020/12/06 09:03:41;;;;;;;24.13;9.07;;;6.80;67.60;;;;;;6262375;28;20170;-70
2020/12/06 09:06:42;;;;;;;30.73;9.48;;;6.80;67.70;;;;;;6260169;28;20057;-70
2020/12/06 09:09:44;;;;;;;21.13;9.60;;;6.70;67.60;;;;;;6256963;28;20112;-70
2020/12/06 09:12:45;;;;;;;24.65;9.23;;;6.70;67.70;;;;;;6241902;28;20037;-71
2020/12/06 09:15:46;;;;;;;29.48;10.15;;;6.70;67.80;;;;;;6257306;28;20413;-77
2020/12/06 09:18:46;;;;;;;26.00;8.63;;;6.70;67.90;;;;;;6233702;28;20441;-72
2020/12/06 09:21:47;;;;;;;31.50;9.07;;;6.80;68.10;;;;;;6252840;28;20041;-72
2020/12/06 09:24:48;;;;;;;25.77;9.85;;;6.90;67.90;;;;;;6242785;28;20034;-71
2020/12/06 09:27:49;;;;;;;24.80;9.00;;;6.90;67.70;;;;;;6256355;28;20151;-71
2020/12/06 09:30:50;;;;;;;25.35;8.85;;;6.90;67.60;;;;;;6254034;28;20045;-72
2020/12/06 09:33:51;;;;;;;21.95;8.05;;;6.80;67.40;;;;;;6250968;28;20473;-72
2020/12/06 09:36:52;;;;;;;28.75;10.27;;;6.80;67.40;;;;;;6250849;28;20064;-79
2020/12/06 09:39:53;;;;;;;28.08;9.18;;;6.80;67.60;;;;;;6252628;28;20105;-71
2020/12/06 09:42:54;;;;;;;25.90;10.30;;;6.80;67.60;;;;;;6250596;28;20042;-72
2020/12/06 09:45:55;;;;;;;30.58;10.15;;;6.80;67.50;;;;;;6255833;28;20036;-71
2020/12/06 09:48:56;;;;;;;25.90;10.77;;;6.80;67.60;;;;;;6243374;28;20040;-72
2020/12/06 09:51:57;;;;;;;30.15;10.38;;;6.90;67.60;;;;;;6253804;28;20112;-71
2020/12/06 09:54:58;;;;;;;29.85;11.05;;;6.90;67.90;;;;;;6250427;28;20490;-73
2020/12/06 09:57:59;;;;;;;28.35;9.95;;;6.90;68.30;;;;;;6253033;28;22555;-74
2020/12/06 10:01:00;;;;;;;37.30;11.10;;;7.00;68.10;;;;;;6251715;28;20029;-73
2020/12/06 10:04:01;;;;;;;49.28;18.42;;;7.10;68.00;;;;;;6254788;28;20051;-73
2020/12/06 10:07:02;;;;;;;30.75;11.50;;;7.20;67.90;;;;;;6255118;28;20040;-73
2020/12/06 10:10:07;;;;;;;21.25;9.07;;;7.40;67.80;;;;;;6253323;28;20329;-71
2020/12/06 10:13:08;;;;;;;30.25;10.70;;;7.60;67.20;;;;;;6268711;28;20060;-72
2020/12/06 10:16:09;;;;;;;23.88;9.55;;;7.60;66.40;;;;;;6260004;28;20370;-72
2020/12/06 10:19:10;;;;;;;32.58;10.93;;;7.60;65.90;;;;;;6234757;28;20367;-71
2020/12/06 10:22:11;;;;;;;32.05;14.18;;;7.60;65.90;;;;;;6232526;28;20116;-72
2020/12/06 10:25:12;;;;;;;27.23;10.30;;;7.40;66.10;;;;;;6219982;28;20042;-74
2020/12/06 10:28:14;;;;;;;27.83;10.30;;;7.40;66.30;;;;;;6233489;28;20477;-77
2020/12/06 10:31:18;;;;;;;26.33;9.65;;;7.50;66.70;;;;;;6261555;28;20488;-75
2020/12/06 10:34:20;;;;;;;32.15;10.13;;;7.50;66.20;;;;;;6253262;28;20459;-73
2020/12/06 10:37:21;;;;;;;27.88;10.35;;;7.50;66.20;;;;;;6256342;28;20025;-75
2020/12/06 10:40:22;;;;;;;35.08;10.32;;;7.60;66.20;;;;;;6250798;28;20056;-75
2020/12/06 10:43:23;;;;;;;35.80;13.45;;;7.60;65.90;;;;;;6257203;28;20071;-75
2020/12/06 10:46:26;;;;;;;29.30;10.82;;;7.60;65.60;;;;;;6245597;28;20041;-75
2020/12/06 10:49:27;;;;;;;29.83;9.77;;;7.60;65.70;;;;;;6260137;28;20041;-75
2020/12/06 10:52:28;;;;;;;34.97;12.00;;;7.70;65.70;;;;;;6253119;28;20038;-75
2020/12/06 10:55:29;;;;;;;31.98;11.95;;;7.70;65.60;;;;;;6253710;28;20041;-75
2020/12/06 10:58:31;;;;;;;29.35;10.93;;;7.70;65.60;;;;;;6256215;28;20057;-75
2020/12/06 11:01:33;;;;;;;36.10;11.25;;;7.60;65.60;;;;;;6241925;28;20044;-74
2020/12/06 11:04:33;;;;;;;35.95;11.70;;;7.60;65.70;;;;;;6250550;28;20034;-73
2020/12/06 11:07:34;;;;;;;33.88;11.30;;;7.50;66.20;;;;;;6256118;28;20052;-74
2020/12/06 11:10:36;;;;;;;34.22;12.25;;;7.70;67.10;;;;;;6253566;28;20089;-75
2020/12/06 11:13:37;;;;;;;47.47;13.82;;;8.00;66.30;;;;;;6256654;28;20084;-75
2020/12/06 11:16:38;;;;;;;46.35;17.55;;;8.40;65.80;;;;;;6217252;28;20030;-75
2020/12/06 11:19:39;;;;;;;53.22;21.45;;;8.80;64.90;;;;;;6233276;28;20034;-76
2020/12/06 11:22:40;;;;;;;43.30;13.18;;;8.90;64.10;;;;;;6233829;28;20026;-75
2020/12/06 11:25:41;;;;;;;33.92;13.02;;;8.90;63.50;;;;;;6230138;28;20535;-78
2020/12/06 11:28:45;;;;;;;41.35;15.90;;;9.00;63.30;;;;;;6233636;28;20478;-79
2020/12/06 11:31:47;;;;;;;41.53;14.15;;;9.10;63.00;;;;;;6239092;28;20052;-78
2020/12/06 11:34:49;;;;;;;40.58;14.85;;;9.10;62.60;;;;;;6253695;28;20046;-79
2020/12/06 11:37:50;;;;;;;35.65;12.82;;;9.10;62.30;;;;;;6253736;28;20049;-79
2020/12/06 11:40:52;;;;;;;31.20;12.32;;;9.10;62.50;;;;;;6243432;28;20387;-79
2020/12/06 11:43:53;;;;;;;28.35;11.48;;;9.10;62.00;;;;;;6250881;28;20095;-79
2020/12/06 11:46:54;;;;;;;25.27;10.15;;;9.00;61.70;;;;;;6249414;28;20049;-78
2020/12/06 11:49:56;;;;;;;30.58;12.60;;;8.90;61.60;;;;;;6249661;28;20142;-77
2020/12/06 11:52:57;;;;;;;26.98;10.73;;;8.80;62.00;;;;;;6261085;28;20056;-79
2020/12/06 11:55:57;;;;;;;42.83;13.77;;;8.80;62.30;;;;;;6253567;28;20038;-76
2020/12/06 11:58:58;;;;;;;36.22;13.27;;;8.90;62.20;;;;;;6260623;28;20056;-75
2020/12/06 12:01:59;;;;;;;32.28;11.77;;;9.10;62.20;;;;;;6255373;28;20034;-75
2020/12/06 12:05:00;;;;;;;56.28;21.27;;;8.90;61.80;;;;;;6258007;28;20121;-73
2020/12/06 12:08:01;;;;;;;48.58;19.58;;;9.00;61.50;;;;;;6256445;28;20041;-77
2020/12/06 12:11:10;;;;;;;36.28;14.45;;;8.90;61.50;;;;;;6249577;28;20496;-75
2020/12/06 12:14:10;;;;;;;31.73;13.18;;;8.80;62.60;;;;;;6256952;28;20045;-75
2020/12/06 12:17:11;;;;;;;33.30;11.40;;;8.70;62.00;;;;;;6251975;28;20379;-75
2020/12/06 12:20:12;;;;;;;30.63;11.07;;;8.70;62.10;;;;;;6257895;28;20362;-76
2020/12/06 12:23:13;;;;;;;26.67;11.23;;;8.60;62.20;;;;;;6257520;28;20148;-75
2020/12/06 12:26:14;;;;;;;25.45;10.70;;;8.40;62.40;;;;;;6252595;28;20128;-76
2020/12/06 12:29:15;;;;;;;28.30;11.27;;;8.30;62.80;;;;;;6256827;28;20033;-75
2020/12/06 12:32:41;;;;;;;25.30;10.18;;;8.20;63.20;;;;;;6258646;28;20050;-76
2020/12/06 12:35:42;;;;;;;31.58;12.10;;;8.30;63.60;;;;;;6252034;28;20029;-75
2020/12/06 12:38:43;;;;;;;28.75;11.50;;;8.30;63.50;;;;;;6238869;28;20036;-75
2020/12/06 12:41:44;;;;;;;24.15;10.40;;;8.20;63.40;;;;;;6260352;28;20492;-76
2020/12/06 12:44:45;;;;;;;25.85;9.93;;;8.30;63.30;;;;;;6251931;28;20033;-76
2020/12/06 12:47:47;;;;;;;27.08;11.82;;;8.30;63.10;;;;;;6252696;28;20041;-75
2020/12/06 12:50:48;;;;;;;26.30;11.40;;;8.20;63.40;;;;;;6239343;28;20203;-74
2020/12/06 12:53:49;;;;;;;25.60;11.20;;;8.10;63.20;;;;;;6226497;28;20037;-74
2020/12/06 12:56:50;;;;;;;24.05;10.02;;;8.20;63.30;;;;;;6227929;28;20096;-75
2020/12/06 12:59:51;;;;;;;20.40;8.68;;;8.20;63.30;;;;;;6230028;28;20103;-75
2020/12/06 13:02:52;;;;;;;18.60;8.60;;;8.20;63.50;;;;;;6218741;28;20062;-77
2020/12/06 13:05:53;;;;;;;21.90;9.80;;;8.20;63.60;;;;;;6225200;28;20415;-74
2020/12/06 13:08:54;;;;;;;25.10;9.63;;;8.30;63.40;;;;;;6228408;28;20064;-71
2020/12/06 13:11:57;;;;;;;27.00;10.23;;;8.20;63.30;;;;;;6227485;28;20095;-75
2020/12/06 13:14:57;;;;;;;23.13;9.65;;;8.20;63.40;;;;;;6228445;28;20096;-72
2020/12/06 13:17:58;;;;;;;41.45;14.80;;;8.20;63.50;;;;;;6226844;28;20121;-75
2020/12/06 13:20:59;;;;;;;27.73;11.75;;;8.30;63.50;;;;;;6228582;28;20033;-75
2020/12/06 13:24:01;;;;;;;23.65;10.23;;;8.30;63.50;;;;;;6229413;28;20033;-76
2020/12/06 13:27:02;;;;;;;30.20;11.75;;;8.30;63.50;;;;;;6228572;28;20042;-73
2020/12/06 13:30:05;;;;;;;23.20;11.70;;;8.40;63.40;;;;;;6232170;28;20120;-75
2020/12/06 13:33:06;;;;;;;27.70;11.23;;;8.60;63.00;;;;;;6232429;28;20034;-75
2020/12/06 13:36:07;;;;;;;23.45;10.50;;;8.70;62.60;;;;;;6228929;28;20045;-75
2020/12/06 13:39:08;;;;;;;28.25;10.68;;;8.60;62.10;;;;;;6232331;28;20037;-74
2020/12/06 13:42:09;;;;;;;26.00;10.60;;;8.50;62.10;;;;;;6231476;28;20026;-74
2020/12/06 13:45:10;;;;;;;23.50;11.90;;;8.50;62.30;;;;;;6230913;28;20588;-74
2020/12/06 13:48:11;;;;;;;33.67;12.23;;;8.50;62.30;;;;;;6236324;28;20048;-74
2020/12/06 13:51:13;;;;;;;32.22;11.55;;;8.40;62.40;;;;;;6239166;28;20046;-75
2020/12/06 13:54:14;;;;;;;31.52;10.38;;;8.30;62.60;;;;;;6229725;28;20049;-74
2020/12/06 13:57:15;;;;;;;35.78;12.73;;;8.20;63.00;;;;;;6232179;28;20474;-74
2020/12/06 14:00:17;;;;;;;33.78;12.02;;;8.10;63.20;;;;;;6231261;28;20447;-75
2020/12/06 14:03:18;;;;;;;28.65;11.85;;;8.00;63.50;;;;;;6215515;28;20037;-74
2020/12/06 14:06:19;;;;;;;30.27;12.13;;;8.00;63.90;;;;;;6244949;28;20099;-74
2020/12/06 14:09:23;;;;;;;32.40;11.50;;;7.90;64.20;;;;;;6227351;28;20033;-74
2020/12/06 14:12:24;;;;;;;30.88;10.65;;;7.80;64.00;;;;;;6247286;28;20044;-74
2020/12/06 14:15:25;;;;;;;25.67;11.02;;;7.70;64.80;;;;;;6244776;28;20104;-76
2020/12/06 14:18:26;;;;;;;29.88;11.38;;;7.60;65.00;;;;;;6237385;28;20123;-79
2020/12/06 14:21:27;;;;;;;39.22;12.70;;;7.50;65.40;;;;;;6225257;28;20043;-77
2020/12/06 14:24:28;;;;;;;35.80;12.95;;;7.40;65.80;;;;;;6228177;28;20055;-77
2020/12/06 14:27:29;;;;;;;27.08;10.88;;;7.40;66.10;;;;;;6245425;28;20048;-79
2020/12/06 14:30:31;;;;;;;32.50;11.57;;;7.40;66.40;;;;;;6223787;28;20508;-77
2020/12/06 14:33:32;;;;;;;33.35;11.77;;;7.60;66.40;;;;;;6235554;28;20113;-77
2020/12/06 14:36:32;;;;;;;33.47;11.50;;;7.60;66.30;;;;;;6243100;28;20094;-77
2020/12/06 14:39:35;;;;;;;39.13;14.60;;;7.80;66.00;;;;;;6237250;28;20069;-77
2020/12/06 14:42:36;;;;;;;27.73;12.25;;;7.80;65.50;;;;;;6218766;28;20411;-77
2020/12/06 14:45:37;;;;;;;37.97;12.23;;;7.90;65.40;;;;;;6237350;28;20029;-75
2020/12/06 14:48:38;;;;;;;31.95;12.18;;;7.90;65.30;;;;;;6257400;28;20086;-75
2020/12/06 14:51:39;;;;;;;30.60;12.77;;;7.90;65.30;;;;;;6244840;28;20440;-75
2020/12/06 14:54:41;;;;;;;42.70;16.60;;;7.80;65.40;;;;;;6257952;28;20036;-75
2020/12/06 14:57:42;;;;;;;37.58;13.68;;;7.80;66.40;;;;;;6243582;28;20033;-73
2020/12/06 15:00:43;;;;;;;31.00;12.82;;;7.80;65.60;;;;;;6235570;28;20581;-72
2020/12/06 15:03:44;;;;;;;32.50;13.45;;;7.80;65.70;;;;;;6217617;28;20525;-73
2020/12/06 15:06:45;;;;;;;37.45;13.63;;;7.70;65.60;;;;;;6227288;28;20061;-73
2020/12/06 15:09:45;;;;;;;34.33;13.48;;;7.70;66.70;;;;;;6229532;28;20486;-75
2020/12/06 15:12:46;;;;;;;39.17;13.60;;;7.60;66.00;;;;;;6231493;28;20037;-74
2020/12/06 15:15:48;;;;;;;32.22;12.55;;;7.60;66.10;;;;;;6246705;28;20381;-80
2020/12/06 15:18:51;;;;;;;38.83;14.30;;;7.50;66.20;;;;;;6230454;28;20033;-78
2020/12/06 15:21:52;;;;;;;36.20;13.32;;;7.40;66.40;;;;;;6229840;28;20038;-77
2020/12/06 15:24:53;;;;;;;46.72;15.38;;;7.40;66.40;;;;;;6225080;28;20137;-78
2020/12/06 15:27:54;;;;;;;47.35;17.27;;;7.30;66.40;;;;;;6231717;28;20438;-79
2020/12/06 15:30:54;;;;;;;24.35;10.70;;;7.20;66.70;;;;;;6229205;28;20455;-74
2020/12/06 15:33:55;;;;;;;27.73;11.45;;;7.20;66.80;;;;;;6232445;28;20061;-76
2020/12/06 15:36:57;;;;;;;32.75;12.18;;;7.20;66.80;;;;;;6226032;28;20379;-75
2020/12/06 15:39:57;;;;;;;35.22;11.85;;;7.10;66.80;;;;;;6240964;28;20031;-75
2020/12/06 15:42:59;;;;;;;28.77;10.77;;;7.10;66.80;;;;;;6259171;28;20501;-78
2020/12/06 15:45:59;;;;;;;34.58;10.23;;;7.10;66.80;;;;;;6229674;28;20040;-78